This is the latest recevied weather packets stored in our database for station/object W8DRH-13. If no packets are shown the sender has not sent any weather packets the latest 10 day(s).
| Time | Temp. | Humidity | Pressure | Rain* | Wind** | Luminosity | Snow |
|---|---|---|---|---|---|---|---|
| 1778175055 | 11.67° C | 56% | 1011.3 hPa | 0 mm | - | 742 W/m² | - |
| 1778174751 | 11.67° C | 56% | 1011.3 hPa | 0 mm | - | 754 W/m² | - |
| 1778174448 | 11.67° C | 59% | 1011.6 hPa | 0 mm | - | 185 W/m² | - |
| 1778174143 | 11.67° C | 57% | 1011.3 hPa | 0 mm | - | 832 W/m² | - |
| 1778173841 | 11.67° C | 60% | 1011.4 hPa | 0 mm | - | 230 W/m² | - |
| 1778173537 | 11.11° C | 57% | 1011.5 hPa | 0 mm | - | 765 W/m² | - |
| 1778173234 | 11.67° C | 58% | 1011.7 hPa | 0 mm | - | 584 W/m² | - |
| 1778172930 | 11.67° C | 59% | 1011.7 hPa | 0 mm | - | 836 W/m² | - |
| 1778172627 | 11.11° C | 60% | 1011.7 hPa | 0 mm | - | 789 W/m² | - |
| 1778172322 | 11.11° C | 62% | 1011.5 hPa | 0 mm | - | 735 W/m² | - |
| 1778172014 | 11.67° C | 59% | 1011.8 hPa | 0 mm | - | 204 W/m² | - |
| 1778171711 | 11.11° C | 60% | 1011.6 hPa | 0 mm | - | 753 W/m² | - |
| 1778171409 | 10.56° C | 60% | 1011.7 hPa | 0 mm | - | 777 W/m² | - |
| 1778171104 | 10.56° C | 60% | 1011.7 hPa | 0 mm | - | 766 W/m² | - |
| 1778170801 | 11.11° C | 58% | 1011.7 hPa | 0 mm | - | 748 W/m² | - |
| 1778170497 | 10.56° C | 58% | 1011.7 hPa | 0 mm | - | 743 W/m² | - |
| 1778170194 | 10.56° C | 58% | 1011.6 hPa | 0 mm | - | 753 W/m² | - |
| 1778169890 | 11.11° C | 57% | 1011.6 hPa | 0 mm | - | 745 W/m² | - |
| 1778169586 | 11.11° C | 56% | 1011.6 hPa | 0 mm | - | 768 W/m² | - |
| 1778169282 | 11.11° C | 58% | 1011.6 hPa | 0 mm | - | 733 W/m² | - |
| 1778168979 | 10.56° C | 55% | 1011.6 hPa | 0 mm | - | 757 W/m² | - |
| 1778168675 | 10.56° C | 54% | 1011.5 hPa | 0 mm | - | 769 W/m² | - |
| 1778168373 | 11.11° C | 55% | 1011.4 hPa | 0 mm | - | 781 W/m² | - |
| 1778168070 | 11.11° C | 58% | 1011.1 hPa | 0 mm | - | 773 W/m² | - |
| 1778167766 | 10.56° C | 56% | 1011.5 hPa | 0 mm | - | 745 W/m² | - |
* Rain latest hour (hover to see other rain measurements)
** Current wind speed in m/s (hover to see current wind gust speed)